Бикин (Ручей Быстрый)

Карта отелей и гостиниц, располагающихся рядом с аэропортом Бикин (Ручей Быстрый) :



Бикин (Ручей Быстрый) Хабаровский край 46° 50' 21.3" N, 134° 18' 27.0612" E

Бикин (Ручей Быстрый) Хабаровский край 46° 50' 21.3" N, 134° 18' 27.0612" E
Код аэродрома ИКАО: 
HFP9
Код аэродрома RU: 
ХФП9
Координаты: 
N46.83925° E134.30752°
Превышение над уровнем моря : 
157
Основная полоса: 
06/24
Курс магнитный: 
056,9/236,9
Длина основной ВПП: 
20
Ширина основной ВПП: 
20
Покрытие основной ВПП: 
Твёрдое
Тип: 
Вертодром
Освещение ВПП: 
Нет
Класс аэродрома: 
Статус: 
Действующий
Принадлежность: 
ГА
Сайт: 
E-mail аэродрома: 
Страна: 
Россия
Регион: 
Хабаровский край
Город: 
Дополнительная информация: 
Оператор: нет данных.

Найти трансфер

С помощью этой формы Вы можете найти трансфер из аэропорта Бикин (Ручей Быстрый) в город, аэропорт или вокзал:

Карта места

Javascript is required to view this map.

Погода в аэропортах:

Авиационная погода в Калуге (Грабцево)

Регион: 
Погода METAR: 
UUBC 210400Z 00000MPS 5000 BR NSC M05/M05 Q1021 R31/120060 TEMPO 1500 BR RMK QFE749/0998
Время наблюдения: 
2020-02-21T04:00:00Z
Температура C: 
-5.0
Точка росы: 
-5.0
Направление ветра: 
0
Скорость ветра: 
0
Метеорологическая видимость: 
3.11
Явления погоды: 
BR
Условия полета: 
MVFR

Авиационная погода в Одессе

Регион: 
Погода METAR: 
UKOO 210400Z 03003MPS 5000 BR FEW006 01/M00 Q1021 R34/090060 NOSIG
Время наблюдения: 
2020-02-21T04:00:00Z
Температура C: 
1.0
Точка росы: 
0.0
Направление ветра: 
30
Скорость ветра: 
6
Метеорологическая видимость: 
3.11
Явления погоды: 
BR
Условия полета: 
MVFR
Аэропорт подробнее: 

Авиационная погода в Платове

Регион: 
Погода METAR: 
URRP 210400Z 07008MPS 9999 -RASN BKN004 01/00 Q1019 R05/290052 TEMPO 0300 FG RMK QBB120 QFE759/1013
Время наблюдения: 
2020-02-21T04:00:00Z
Температура C: 
1.0
Точка росы: 
0.0
Направление ветра: 
70
Скорость ветра: 
16
Метеорологическая видимость: 
6.21
Явления погоды: 
-RA -SN
Условия полета: 
LIFR
Аэропорт подробнее: 

Авиационная погода в Вардё

Регион: 
Погода METAR: 
ENSS 201850Z 21037G50KT 0200 +BLSN BKN026 M06/M08 Q0994 RMK WIND 500FT 21048G58KT
Время наблюдения: 
2020-02-20T18:50:00Z
Температура C: 
-6.0
Точка росы: 
-8.0
Направление ветра: 
210
Скорость ветра: 
37
Метеорологическая видимость: 
0.12
Явления погоды: 
+BLSN
Условия полета: 
LIFR